createdAt,value
2018-12-26T00:01:24.033Z,26.80
2018-12-26T00:04:06.287Z,26.80
2018-12-26T00:06:47.699Z,26.80
2018-12-26T00:09:29.124Z,26.80
2018-12-26T00:12:10.627Z,26.80
2018-12-26T00:14:52.227Z,26.80
2018-12-26T00:17:34.927Z,26.80
2018-12-26T00:20:16.926Z,26.80
2018-12-26T00:22:58.614Z,26.80
2018-12-26T00:25:40.110Z,26.80
2018-12-26T00:28:21.703Z,26.80
2018-12-26T00:31:03.041Z,26.90
2018-12-26T00:33:43.929Z,26.80
2018-12-26T00:36:25.895Z,26.80
2018-12-26T00:39:07.182Z,26.80
2018-12-26T00:41:48.502Z,26.80
2018-12-26T00:44:29.902Z,26.80
2018-12-26T00:47:12.111Z,26.80
2018-12-26T00:49:54.434Z,26.80
2018-12-26T00:52:36.450Z,26.80
2018-12-26T00:55:18.586Z,26.80
2018-12-26T00:58:00.187Z,27.20
2018-12-26T01:00:42.466Z,26.80
2018-12-26T01:03:24.882Z,26.80
2018-12-26T01:06:06.674Z,26.80
2018-12-26T01:08:48.355Z,26.80
2018-12-26T01:11:30.090Z,26.80
2018-12-26T01:14:11.498Z,26.80
2018-12-26T01:16:53.108Z,26.70
2018-12-26T01:19:34.620Z,26.70
2018-12-26T01:22:17.419Z,26.70
2018-12-26T01:24:59.519Z,26.80
2018-12-26T01:27:41.195Z,26.80
2018-12-26T01:30:22.583Z,26.80
2018-12-26T01:33:04.497Z,26.80
2018-12-26T01:35:46.259Z,26.70
2018-12-26T01:38:28.358Z,26.70
2018-12-26T01:41:10.364Z,26.80
2018-12-26T01:43:51.774Z,26.70
2018-12-26T01:46:33.906Z,26.70
2018-12-26T01:49:16.120Z,27.20
2018-12-26T01:51:57.795Z,26.70
2018-12-26T01:54:39.892Z,26.70
2018-12-26T01:57:21.164Z,26.70
2018-12-26T02:00:03.439Z,26.80
2018-12-26T02:02:45.015Z,26.80
2018-12-26T02:05:27.319Z,26.80
2018-12-26T02:08:08.711Z,26.70
2018-12-26T02:10:50.930Z,26.70
2018-12-26T02:13:32.747Z,26.70
2018-12-26T02:16:15.158Z,26.70
2018-12-26T02:18:56.522Z,26.70
2018-12-26T02:21:37.898Z,26.70
2018-12-26T02:24:19.339Z,26.70
2018-12-26T02:27:01.998Z,26.70
2018-12-26T02:29:43.446Z,26.70
2018-12-26T02:32:25.367Z,26.70
2018-12-26T02:35:07.494Z,26.70
2018-12-26T02:37:50.096Z,26.70
2018-12-26T02:40:32.129Z,26.70
2018-12-26T02:43:14.407Z,26.70
2018-12-26T02:45:56.365Z,26.70
2018-12-26T02:48:37.868Z,26.70
2018-12-26T02:51:19.239Z,26.70
2018-12-26T02:54:00.986Z,26.70
2018-12-26T02:56:48.659Z,26.70
2018-12-26T02:59:26.836Z,26.70
2018-12-26T03:02:08.259Z,26.70
2018-12-26T03:04:49.669Z,26.70
2018-12-26T03:07:31.008Z,26.70
2018-12-26T03:10:12.635Z,26.70
2018-12-26T03:12:54.140Z,26.60
2018-12-26T03:15:35.727Z,26.60
2018-12-26T03:18:17.351Z,26.60
2018-12-26T03:20:58.939Z,26.60
2018-12-26T03:23:40.928Z,26.60
2018-12-26T03:26:22.612Z,26.60
2018-12-26T03:29:04.099Z,26.60
2018-12-26T03:34:37.714Z,26.60
2018-12-26T03:37:19.311Z,26.50
2018-12-26T03:40:00.771Z,26.50
2018-12-26T03:42:42.367Z,26.60
2018-12-26T03:45:24.089Z,26.60
2018-12-26T03:48:05.716Z,26.60
2018-12-26T03:50:47.898Z,26.60
2018-12-26T03:53:29.482Z,26.60
2018-12-26T03:56:11.448Z,26.60
2018-12-26T03:58:52.915Z,26.60
2018-12-26T04:01:34.391Z,26.60
2018-12-26T04:04:16.658Z,26.60
2018-12-26T04:06:58.775Z,26.60
2018-12-26T04:09:40.666Z,26.60
2018-12-26T04:12:22.786Z,26.60
2018-12-26T04:15:03.434Z,26.60
2018-12-26T04:17:45.375Z,26.50
2018-12-26T04:20:26.724Z,26.60
2018-12-26T04:23:08.487Z,26.60
2018-12-26T04:25:50.031Z,26.60
2018-12-26T04:28:31.624Z,26.50
2018-12-26T04:31:13.292Z,26.60
2018-12-26T04:33:56.123Z,26.50
2018-12-26T04:36:37.723Z,26.50
2018-12-26T04:39:20.004Z,26.50
2018-12-26T04:42:01.348Z,26.50
2018-12-26T04:44:43.031Z,26.50
2018-12-26T04:47:24.772Z,26.50
2018-12-26T04:50:06.327Z,26.50
2018-12-26T04:52:46.779Z,26.50
2018-12-26T04:55:28.343Z,26.50
2018-12-26T04:58:10.035Z,26.50
2018-12-26T05:00:51.474Z,26.50
2018-12-26T05:03:33.077Z,26.50
2018-12-26T05:06:14.658Z,26.50
2018-12-26T05:08:56.886Z,26.50
2018-12-26T05:11:38.482Z,26.50
2018-12-26T05:14:20.563Z,26.50
2018-12-26T05:17:02.205Z,26.50
2018-12-26T05:19:43.614Z,26.40
2018-12-26T05:22:25.766Z,26.40
2018-12-26T05:25:07.161Z,26.40
2018-12-26T05:27:48.654Z,26.40
2018-12-26T05:30:30.085Z,26.50
2018-12-26T05:33:11.799Z,26.40
2018-12-26T05:35:53.911Z,26.50
2018-12-26T05:38:35.285Z,26.40
2018-12-26T05:41:17.127Z,26.40
2018-12-26T05:43:59.379Z,26.40
2018-12-26T05:46:41.111Z,26.40
2018-12-26T05:49:22.891Z,26.40
2018-12-26T05:52:04.359Z,26.40
2018-12-26T05:54:45.957Z,26.40
2018-12-26T05:57:27.271Z,26.40
2018-12-26T06:00:09.219Z,26.40
2018-12-26T06:02:50.815Z,26.40
2018-12-26T06:05:32.878Z,26.40
2018-12-26T06:08:15.085Z,26.40
2018-12-26T06:10:57.376Z,26.40
2018-12-26T06:13:39.067Z,26.30
2018-12-26T06:16:20.455Z,26.30
2018-12-26T06:19:02.271Z,26.30
2018-12-26T06:21:43.703Z,26.30
2018-12-26T06:24:25.161Z,26.30
2018-12-26T06:27:06.767Z,26.30
2018-12-26T06:29:48.930Z,26.30
2018-12-26T06:32:30.628Z,26.40
2018-12-26T06:35:12.594Z,26.40
2018-12-26T06:37:54.685Z,26.30
2018-12-26T06:40:36.954Z,26.30
2018-12-26T06:43:18.574Z,26.30
2018-12-26T06:46:00.514Z,26.30
2018-12-26T06:48:41.886Z,26.30
2018-12-26T06:51:23.284Z,26.30
2018-12-26T06:54:04.851Z,26.30
2018-12-26T06:56:46.391Z,26.40
2018-12-26T06:59:28.067Z,26.30
2018-12-26T07:02:09.591Z,26.30
2018-12-26T07:04:51.331Z,26.30
2018-12-26T07:07:33.265Z,26.30
2018-12-26T07:10:15.452Z,26.30
2018-12-26T07:12:56.987Z,26.30
2018-12-26T07:15:38.644Z,26.70
2018-12-26T07:18:20.774Z,26.30
2018-12-26T07:21:02.840Z,26.30
2018-12-26T07:23:44.301Z,26.30
2018-12-26T07:26:25.681Z,26.30
2018-12-26T07:29:07.140Z,26.20
2018-12-26T07:31:48.682Z,26.30
2018-12-26T07:34:30.170Z,26.30
2018-12-26T07:37:11.575Z,26.30
2018-12-26T07:39:53.349Z,26.20
2018-12-26T07:42:35.151Z,26.20
2018-12-26T07:45:16.787Z,26.20
2018-12-26T07:47:58.661Z,26.20
2018-12-26T07:50:40.715Z,26.30
2018-12-26T07:53:22.327Z,26.20
2018-12-26T07:56:04.025Z,26.30
2018-12-26T07:58:45.919Z,26.30
2018-12-26T08:01:27.705Z,26.30
2018-12-26T08:04:09.916Z,26.30
2018-12-26T08:06:51.525Z,26.20
2018-12-26T08:09:33.019Z,26.20
2018-12-26T08:12:14.941Z,26.20
2018-12-26T08:14:56.495Z,26.20
2018-12-26T08:17:38.189Z,26.20
2018-12-26T08:20:20.435Z,26.60
2018-12-26T08:23:02.487Z,26.20
2018-12-26T08:25:44.138Z,26.20
2018-12-26T08:28:26.680Z,26.20
2018-12-26T08:31:08.767Z,26.10
2018-12-26T08:33:51.243Z,26.10
2018-12-26T08:36:31.807Z,26.20
2018-12-26T08:39:13.595Z,26.20
2018-12-26T08:41:55.014Z,26.10
2018-12-26T08:44:36.520Z,26.20
2018-12-26T08:47:17.923Z,26.20
2018-12-26T08:49:59.454Z,26.20
2018-12-26T08:52:40.821Z,26.20
2018-12-26T08:55:22.710Z,26.20
2018-12-26T08:58:04.273Z,26.20
2018-12-26T09:00:46.003Z,26.20
2018-12-26T09:03:27.503Z,26.20
2018-12-26T09:06:09.476Z,26.20
2018-12-26T09:08:51.128Z,26.20
2018-12-26T09:11:32.579Z,26.20
2018-12-26T09:14:14.285Z,26.60
2018-12-26T09:16:55.887Z,26.10
2018-12-26T09:19:37.547Z,26.10
2018-12-26T09:22:19.242Z,26.10
2018-12-26T09:25:00.639Z,26.20
2018-12-26T09:27:42.563Z,26.10
2018-12-26T09:30:24.484Z,26.20
2018-12-26T09:33:06.695Z,26.10
2018-12-26T09:35:48.455Z,26.10
2018-12-26T09:38:30.682Z,26.10
2018-12-26T09:41:12.007Z,26.10
2018-12-26T09:43:53.475Z,26.10
2018-12-26T09:46:35.276Z,26.00
2018-12-26T09:49:16.683Z,26.10
2018-12-26T09:51:58.359Z,26.10
2018-12-26T09:54:40.133Z,26.10
2018-12-26T09:57:21.602Z,26.10
2018-12-26T10:00:03.393Z,26.10
2018-12-26T10:02:44.771Z,26.00
2018-12-26T10:05:25.268Z,26.10
2018-12-26T10:08:07.092Z,26.10
2018-12-26T10:10:48.842Z,26.00
2018-12-26T10:13:30.936Z,26.00
2018-12-26T10:16:12.998Z,26.10
2018-12-26T10:18:54.321Z,26.10
2018-12-26T10:21:36.468Z,26.10
2018-12-26T10:24:17.994Z,26.10
2018-12-26T10:27:00.007Z,26.10
2018-12-26T10:29:41.316Z,26.10
2018-12-26T10:32:23.503Z,26.00
2018-12-26T10:35:05.897Z,26.00
2018-12-26T10:37:48.063Z,26.00
2018-12-26T10:40:29.491Z,26.00
2018-12-26T10:43:10.952Z,26.40
2018-12-26T10:45:52.518Z,26.00
2018-12-26T10:48:34.114Z,26.00
2018-12-26T10:51:15.534Z,26.00
2018-12-26T10:53:57.823Z,26.00
2018-12-26T10:56:39.403Z,26.10
2018-12-26T10:59:21.431Z,26.10
2018-12-26T11:02:02.970Z,26.10
2018-12-26T11:04:46.395Z,26.10
2018-12-26T11:07:28.067Z,26.10
2018-12-26T11:10:08.870Z,26.10
2018-12-26T11:12:50.154Z,26.10
2018-12-26T11:15:31.771Z,26.00
2018-12-26T11:18:13.391Z,26.10
2018-12-26T11:20:54.911Z,26.10
2018-12-26T11:23:37.015Z,26.00
2018-12-26T11:26:18.615Z,26.00
2018-12-26T11:29:00.091Z,26.00
2018-12-26T11:31:42.159Z,26.00
2018-12-26T11:34:23.768Z,26.00
2018-12-26T11:37:06.002Z,26.00
2018-12-26T11:39:47.380Z,26.00
2018-12-26T11:42:29.361Z,26.00
2018-12-26T11:45:11.111Z,26.00
2018-12-26T11:47:52.875Z,26.40
2018-12-26T11:50:35.010Z,26.00
2018-12-26T11:53:16.471Z,26.00
2018-12-26T11:55:57.835Z,26.00
2018-12-26T11:58:39.624Z,26.00
2018-12-26T12:01:20.897Z,26.00
2018-12-26T12:04:02.307Z,26.10
2018-12-26T12:06:44.202Z,26.10
2018-12-26T12:09:25.727Z,26.00
2018-12-26T12:12:07.064Z,26.00
2018-12-26T12:14:48.477Z,26.00
2018-12-26T12:17:29.959Z,26.00
2018-12-26T12:20:12.412Z,26.00
2018-12-26T12:22:54.090Z,26.00
2018-12-26T12:25:35.526Z,26.00
2018-12-26T12:28:17.622Z,26.00
2018-12-26T12:30:59.274Z,26.00
2018-12-26T12:33:41.166Z,26.00
2018-12-26T12:36:23.295Z,26.00
2018-12-26T12:39:04.946Z,26.00
2018-12-26T12:41:46.750Z,26.00
2018-12-26T12:44:28.254Z,26.00
2018-12-26T12:47:09.771Z,26.40
2018-12-26T12:49:51.435Z,26.00
2018-12-26T12:52:33.116Z,26.00
2018-12-26T12:55:14.534Z,26.00
2018-12-26T12:57:55.878Z,26.00
2018-12-26T13:00:37.515Z,26.00
2018-12-26T13:03:18.942Z,26.00
2018-12-26T13:06:00.480Z,26.00
2018-12-26T13:08:42.120Z,26.00
2018-12-26T13:11:23.652Z,26.10
2018-12-26T13:14:05.468Z,26.00
2018-12-26T13:16:47.148Z,26.10
2018-12-26T13:19:28.540Z,26.00
2018-12-26T13:22:10.875Z,26.10
2018-12-26T13:24:52.348Z,26.10
2018-12-26T13:27:33.811Z,26.10
2018-12-26T13:30:15.727Z,26.10
2018-12-26T13:32:58.674Z,26.10
2018-12-26T13:35:40.434Z,26.00
2018-12-26T13:38:21.901Z,26.10
2018-12-26T13:41:03.930Z,26.00
2018-12-26T13:43:45.510Z,26.00
2018-12-26T13:46:33.758Z,26.00
2018-12-26T13:49:11.127Z,26.00
2018-12-26T13:51:53.191Z,26.00
2018-12-26T13:54:34.540Z,26.00
2018-12-26T13:57:15.950Z,26.00
2018-12-26T14:00:02.302Z,26.00
2018-12-26T14:02:41.159Z,26.00
2018-12-26T14:05:22.677Z,26.00
2018-12-26T14:08:05.131Z,26.00
2018-12-26T14:10:46.566Z,26.00
2018-12-26T14:13:28.706Z,26.00
2018-12-26T14:16:10.206Z,26.00
2018-12-26T14:18:52.330Z,26.10
2018-12-26T14:21:33.906Z,26.00
2018-12-26T14:24:15.234Z,26.00
2018-12-26T14:26:56.844Z,26.10
2018-12-26T14:29:38.787Z,26.10
2018-12-26T14:32:20.891Z,26.10
2018-12-26T14:35:03.071Z,26.10
2018-12-26T14:37:44.846Z,26.10
2018-12-26T14:40:26.224Z,26.00
2018-12-26T14:43:07.771Z,26.10
2018-12-26T14:45:49.121Z,26.00
2018-12-26T14:48:30.655Z,26.00
2018-12-26T14:51:12.167Z,26.00
2018-12-26T14:53:53.786Z,26.00
2018-12-26T14:56:35.183Z,26.00
2018-12-26T14:59:16.495Z,26.00
2018-12-26T15:01:58.051Z,26.00
2018-12-26T15:04:39.843Z,26.00
2018-12-26T15:07:21.526Z,26.00
2018-12-26T15:10:03.071Z,26.10
2018-12-26T15:12:45.362Z,26.10
2018-12-26T15:15:27.542Z,26.10
2018-12-26T15:18:09.411Z,26.10
2018-12-26T15:20:51.082Z,26.10
2018-12-26T15:23:33.206Z,26.00
2018-12-26T15:26:15.386Z,26.10
2018-12-26T15:28:57.056Z,26.00
2018-12-26T15:31:39.387Z,26.40
2018-12-26T15:34:21.443Z,26.00
2018-12-26T15:37:03.715Z,26.10
2018-12-26T15:39:45.300Z,26.00
2018-12-26T15:42:27.213Z,26.10
2018-12-26T15:45:08.759Z,26.00
2018-12-26T15:47:50.112Z,26.00
2018-12-26T15:50:32.079Z,26.00
2018-12-26T15:53:14.200Z,26.00
2018-12-26T15:55:56.215Z,26.00
2018-12-26T15:58:38.071Z,26.00
2018-12-26T16:01:19.615Z,26.00
2018-12-26T16:04:01.178Z,26.00
2018-12-26T16:06:43.171Z,26.10
2018-12-26T16:09:23.647Z,26.10
2018-12-26T16:12:05.024Z,26.10
2018-12-26T16:14:46.890Z,26.00
2018-12-26T16:17:29.011Z,26.10
2018-12-26T16:20:10.391Z,26.10
2018-12-26T16:22:51.934Z,26.10
2018-12-26T16:25:33.255Z,26.10
2018-12-26T16:28:15.319Z,26.10
2018-12-26T16:30:56.666Z,26.00
2018-12-26T16:33:38.499Z,26.00
2018-12-26T16:36:20.321Z,26.00
2018-12-26T16:39:01.843Z,26.00
2018-12-26T16:41:43.491Z,26.00
2018-12-26T16:44:24.946Z,26.00
2018-12-26T16:47:06.471Z,26.00
2018-12-26T16:49:47.903Z,26.00
2018-12-26T16:52:29.650Z,26.00
2018-12-26T16:55:12.007Z,26.00
2018-12-26T16:57:52.307Z,26.00
2018-12-26T17:00:34.551Z,26.00
2018-12-26T17:03:16.302Z,26.00
2018-12-26T17:05:57.755Z,26.00
2018-12-26T17:08:39.304Z,26.00
2018-12-26T17:11:20.400Z,26.00
2018-12-26T17:14:02.198Z,26.10
2018-12-26T17:16:43.843Z,26.00
2018-12-26T17:19:25.222Z,26.10
2018-12-26T17:22:06.587Z,26.10
2018-12-26T17:24:48.199Z,26.10
2018-12-26T17:27:29.894Z,26.10
2018-12-26T17:30:11.276Z,26.10
2018-12-26T17:33:00.568Z,26.10
2018-12-26T17:35:37.562Z,26.10
2018-12-26T17:38:19.791Z,26.10
2018-12-26T17:41:01.480Z,26.10
2018-12-26T17:43:41.956Z,26.10
2018-12-26T17:46:23.812Z,26.00
2018-12-26T17:49:05.627Z,26.00
2018-12-26T17:51:46.986Z,26.00
2018-12-26T17:54:28.613Z,26.00
2018-12-26T17:57:10.334Z,26.00
2018-12-26T17:59:52.100Z,26.00
2018-12-26T18:02:33.826Z,26.00
2018-12-26T18:05:14.975Z,26.10
2018-12-26T18:07:56.819Z,26.00
2018-12-26T18:10:38.538Z,26.00
2018-12-26T18:13:20.312Z,26.00
2018-12-26T18:16:01.960Z,26.10
2018-12-26T18:18:43.402Z,26.10
2018-12-26T18:21:25.316Z,26.10
2018-12-26T18:24:06.714Z,26.10
2018-12-26T18:26:48.756Z,26.10
2018-12-26T18:29:30.463Z,26.10
2018-12-26T18:32:12.642Z,26.10
2018-12-26T18:34:54.297Z,26.10
2018-12-26T18:37:36.954Z,26.00
2018-12-26T18:40:18.799Z,26.10
2018-12-26T18:43:00.380Z,26.10
2018-12-26T18:45:41.966Z,26.10
2018-12-26T18:48:23.468Z,26.10
2018-12-26T18:51:05.143Z,26.10
2018-12-26T18:53:46.733Z,26.10
2018-12-26T18:56:28.969Z,26.10
2018-12-26T18:59:10.631Z,26.10
2018-12-26T19:01:52.623Z,26.10
2018-12-26T19:04:34.226Z,26.00
2018-12-26T19:07:16.063Z,26.10
2018-12-26T19:09:58.711Z,26.10
2018-12-26T19:12:40.123Z,26.10
2018-12-26T19:15:21.554Z,26.10
2018-12-26T19:18:02.938Z,26.10
2018-12-26T19:20:44.777Z,26.10
2018-12-26T19:23:26.195Z,26.10
2018-12-26T19:26:07.786Z,26.10
2018-12-26T19:28:49.152Z,26.10
2018-12-26T19:31:39.280Z,26.10
2018-12-26T19:34:16.755Z,26.10
2018-12-26T19:36:57.147Z,26.10
2018-12-26T19:39:38.579Z,26.10
2018-12-26T19:42:20.691Z,26.10
2018-12-26T19:45:03.022Z,26.10
2018-12-26T19:47:44.634Z,26.10
2018-12-26T19:50:25.270Z,26.10
2018-12-26T19:53:06.747Z,26.10
2018-12-26T19:55:48.323Z,26.10
2018-12-26T19:58:29.300Z,26.10
2018-12-26T20:01:09.396Z,26.10
2018-12-26T20:03:51.134Z,26.10
2018-12-26T20:06:33.084Z,26.10
2018-12-26T20:09:14.511Z,26.10
2018-12-26T20:11:56.267Z,26.10
2018-12-26T20:14:37.943Z,26.10
2018-12-26T20:17:19.383Z,26.10
2018-12-26T20:20:01.039Z,26.20
2018-12-26T20:22:43.163Z,26.20
2018-12-26T20:25:25.168Z,26.20
2018-12-26T20:28:06.679Z,26.10
2018-12-26T20:30:47.191Z,26.50
2018-12-26T20:33:29.346Z,26.10
2018-12-26T20:36:11.210Z,26.10
2018-12-26T20:38:53.435Z,26.10
2018-12-26T20:41:34.931Z,26.10
2018-12-26T20:44:17.147Z,26.10
2018-12-26T20:46:59.397Z,26.10
2018-12-26T20:49:41.074Z,26.10
2018-12-26T20:52:22.698Z,26.10
2018-12-26T20:55:04.379Z,26.10
2018-12-26T20:57:44.880Z,26.10
2018-12-26T21:00:26.255Z,26.10
2018-12-26T21:03:07.703Z,26.10
2018-12-26T21:05:49.910Z,26.10
2018-12-26T21:08:31.535Z,26.10
2018-12-26T21:11:13.923Z,26.10
2018-12-26T21:13:55.746Z,26.10
2018-12-26T21:16:37.451Z,26.10
2018-12-26T21:19:19.262Z,26.20
2018-12-26T21:22:01.080Z,26.20
2018-12-26T21:24:42.807Z,26.20
2018-12-26T21:27:24.518Z,26.20
2018-12-26T21:30:06.314Z,26.20
2018-12-26T21:32:48.101Z,26.20
2018-12-26T21:35:29.766Z,26.20
2018-12-26T21:38:11.919Z,26.20
2018-12-26T21:40:53.378Z,26.10
2018-12-26T21:43:34.930Z,26.20
2018-12-26T21:46:17.152Z,26.10
2018-12-26T21:48:58.717Z,26.20
2018-12-26T21:51:40.794Z,26.10
2018-12-26T21:54:22.359Z,26.10
2018-12-26T21:57:03.758Z,26.20
2018-12-26T21:59:45.275Z,26.20
2018-12-26T22:02:26.803Z,26.20
2018-12-26T22:05:08.190Z,26.20
2018-12-26T22:07:49.886Z,26.20
2018-12-26T22:10:31.959Z,26.20
2018-12-26T22:13:14.114Z,26.10
2018-12-26T22:15:55.811Z,26.20
2018-12-26T22:18:37.390Z,26.20
2018-12-26T22:21:19.163Z,26.20
2018-12-26T22:24:01.003Z,26.20
2018-12-26T22:26:43.301Z,26.20
2018-12-26T22:29:25.203Z,26.20
2018-12-26T22:32:06.947Z,26.20
2018-12-26T22:34:48.879Z,26.20
2018-12-26T22:37:30.435Z,26.20
2018-12-26T22:40:12.186Z,26.20
2018-12-26T22:42:54.007Z,26.20
2018-12-26T22:45:43.628Z,26.20
2018-12-26T22:48:19.094Z,26.20
2018-12-26T22:51:00.744Z,26.20
2018-12-26T22:53:42.239Z,26.60
2018-12-26T22:56:24.130Z,26.20
2018-12-26T22:59:05.842Z,26.20
2018-12-26T23:01:48.068Z,26.20
2018-12-26T23:04:29.535Z,26.20
2018-12-26T23:07:11.255Z,26.20
2018-12-26T23:09:53.011Z,26.20
2018-12-26T23:12:34.575Z,26.20
2018-12-26T23:15:16.491Z,26.20
2018-12-26T23:17:58.115Z,26.20
2018-12-26T23:20:39.750Z,26.20
2018-12-26T23:23:21.353Z,26.20
2018-12-26T23:26:03.135Z,26.20
2018-12-26T23:28:44.839Z,26.20
2018-12-26T23:31:26.810Z,26.20
2018-12-26T23:34:08.667Z,26.20
2018-12-26T23:36:50.247Z,26.20
2018-12-26T23:39:31.631Z,26.20
2018-12-26T23:42:13.325Z,26.20
2018-12-26T23:44:55.560Z,26.20
2018-12-26T23:47:37.563Z,26.20
2018-12-26T23:50:18.997Z,26.20
2018-12-26T23:53:00.419Z,26.20
2018-12-26T23:55:41.951Z,26.20
2018-12-26T23:58:23.490Z,26.20
